Puxico, Missouri
Current Conditions -  °F | °C
As of 10:53 PM on Monday 22 Dec 2014 (Local Time) from KPOF Reporting Station
Haze Haze  
Wind Chill: 53°   Ceiling: 600
Heat Index: 53°   Visibility: 6mi
Dew Point: 50°   Wind: 10mph
Humidity: 89%   Direction: 210°SSW
Pressure: 29.61"   Gusts: NA
Location:  36.95°N, 90.16°W
Report Text: KPOF 230453Z AUTO 21009KT 6SM BR OVC006 12/10 A2961 RMK AO2 CIG 005V010 SLP028 T01170100
Loading
Personal Weather Stations






























Interactive Weather Map New forecast layout! Learn more

10-Day Weather Forecast

Advertisements
Track Severe Weather on mobile